sensor_id;sensor_type;location;lat;lon;timestamp;P1;durP1;ratioP1;P2;durP2;ratioP2
67712;SDS011;67640;55.784;49.138;2023-04-25T00:04:37;12.33;;;3.80;;
67712;SDS011;67640;55.784;49.138;2023-04-25T00:09:56;18.40;;;5.08;;
67712;SDS011;67640;55.784;49.138;2023-04-25T00:15:24;21.00;;;4.97;;
67712;SDS011;67640;55.784;49.138;2023-04-25T00:20:29;18.15;;;5.20;;
67712;SDS011;67640;55.784;49.138;2023-04-25T00:25:48;12.10;;;4.30;;
67712;SDS011;67640;55.784;49.138;2023-04-25T00:31:20;10.85;;;3.83;;
67712;SDS011;67640;55.784;49.138;2023-04-25T00:36:25;9.88;;;3.33;;
67712;SDS011;67640;55.784;49.138;2023-04-25T00:41:30;15.63;;;3.90;;
67712;SDS011;67640;55.784;49.138;2023-04-25T00:46:49;21.20;;;4.80;;
67712;SDS011;67640;55.784;49.138;2023-04-25T00:52:09;13.73;;;4.07;;
67712;SDS011;67640;55.784;49.138;2023-04-25T00:57:15;11.38;;;4.30;;
67712;SDS011;67640;55.784;49.138;2023-04-25T01:02:21;12.35;;;3.98;;
67712;SDS011;67640;55.784;49.138;2023-04-25T01:07:39;13.95;;;3.85;;
67712;SDS011;67640;55.784;49.138;2023-04-25T01:12:45;9.70;;;4.13;;
67712;SDS011;67640;55.784;49.138;2023-04-25T01:17:51;16.77;;;4.17;;
67712;SDS011;67640;55.784;49.138;2023-04-25T01:22:56;17.80;;;3.93;;
67712;SDS011;67640;55.784;49.138;2023-04-25T01:28:16;15.20;;;4.20;;
67712;SDS011;67640;55.784;49.138;2023-04-25T01:33:22;11.75;;;3.70;;
67712;SDS011;67640;55.784;49.138;2023-04-25T01:38:28;9.50;;;3.40;;
67712;SDS011;67640;55.784;49.138;2023-04-25T01:43:34;12.78;;;3.25;;
67712;SDS011;67640;55.784;49.138;2023-04-25T01:48:44;14.10;;;3.30;;
67712;SDS011;67640;55.784;49.138;2023-04-25T01:54:02;9.68;;;3.12;;
67712;SDS011;67640;55.784;49.138;2023-04-25T01:59:07;9.87;;;3.47;;
67712;SDS011;67640;55.784;49.138;2023-04-25T02:04:13;12.30;;;3.50;;
67712;SDS011;67640;55.784;49.138;2023-04-25T02:09:47;11.90;;;3.70;;
67712;SDS011;67640;55.784;49.138;2023-04-25T02:14:52;9.27;;;3.10;;
67712;SDS011;67640;55.784;49.138;2023-04-25T02:19:58;11.28;;;3.77;;
67712;SDS011;67640;55.784;49.138;2023-04-25T02:25:17;9.53;;;3.83;;
67712;SDS011;67640;55.784;49.138;2023-04-25T02:30:37;15.55;;;3.80;;
67712;SDS011;67640;55.784;49.138;2023-04-25T02:35:57;13.58;;;3.70;;
67712;SDS011;67640;55.784;49.138;2023-04-25T02:41:01;14.67;;;4.00;;
67712;SDS011;67640;55.784;49.138;2023-04-25T02:46:07;15.68;;;4.12;;
67712;SDS011;67640;55.784;49.138;2023-04-25T02:51:26;14.47;;;4.00;;
67712;SDS011;67640;55.784;49.138;2023-04-25T02:56:31;11.38;;;3.62;;
67712;SDS011;67640;55.784;49.138;2023-04-25T03:01:36;12.33;;;4.12;;
67712;SDS011;67640;55.784;49.138;2023-04-25T03:06:58;12.40;;;3.60;;
67712;SDS011;67640;55.784;49.138;2023-04-25T03:12:04;12.93;;;3.73;;
67712;SDS011;67640;55.784;49.138;2023-04-25T03:17:23;11.97;;;4.10;;
67712;SDS011;67640;55.784;49.138;2023-04-25T03:22:42;17.83;;;4.03;;
67712;SDS011;67640;55.784;49.138;2023-04-25T03:27:59;12.43;;;3.70;;
67712;SDS011;67640;55.784;49.138;2023-04-25T03:33:05;14.03;;;3.47;;
67712;SDS011;67640;55.784;49.138;2023-04-25T03:38:24;23.40;;;3.80;;
67712;SDS011;67640;55.784;49.138;2023-04-25T03:43:43;9.63;;;3.67;;
67712;SDS011;67640;55.784;49.138;2023-04-25T03:48:49;12.63;;;3.90;;
67712;SDS011;67640;55.784;49.138;2023-04-25T03:54:08;22.17;;;4.10;;
67712;SDS011;67640;55.784;49.138;2023-04-25T03:59:13;9.20;;;3.10;;
67712;SDS011;67640;55.784;49.138;2023-04-25T04:04:18;16.13;;;3.47;;
67712;SDS011;67640;55.784;49.138;2023-04-25T04:09:37;13.18;;;3.02;;
67712;SDS011;67640;55.784;49.138;2023-04-25T04:14:42;11.95;;;3.95;;
67712;SDS011;67640;55.784;49.138;2023-04-25T04:20:02;9.37;;;3.07;;
67712;SDS011;67640;55.784;49.138;2023-04-25T04:25:22;205.12;;;10.28;;
67712;SDS011;67640;55.784;49.138;2023-04-25T04:30:27;30.87;;;3.60;;
67712;SDS011;67640;55.784;49.138;2023-04-25T04:35:46;12.88;;;3.30;;
67712;SDS011;67640;55.784;49.138;2023-04-25T04:40:51;15.20;;;3.22;;
67712;SDS011;67640;55.784;49.138;2023-04-25T04:46:09;10.85;;;3.45;;
67712;SDS011;67640;55.784;49.138;2023-04-25T04:51:14;11.20;;;3.40;;
67712;SDS011;67640;55.784;49.138;2023-04-25T04:56:20;13.60;;;3.92;;
67712;SDS011;67640;55.784;49.138;2023-04-25T05:01:45;13.00;;;3.72;;
67712;SDS011;67640;55.784;49.138;2023-04-25T05:06:51;12.20;;;3.23;;
67712;SDS011;67640;55.784;49.138;2023-04-25T05:12:22;16.50;;;3.50;;
67712;SDS011;67640;55.784;49.138;2023-04-25T05:17:28;25.77;;;3.92;;
67712;SDS011;67640;55.784;49.138;2023-04-25T05:22:34;19.47;;;4.97;;
67712;SDS011;67640;55.784;49.138;2023-04-25T05:27:53;11.27;;;4.27;;
67712;SDS011;67640;55.784;49.138;2023-04-25T05:32:58;16.35;;;3.58;;
67712;SDS011;67640;55.784;49.138;2023-04-25T05:38:17;20.10;;;3.35;;
67712;SDS011;67640;55.784;49.138;2023-04-25T05:43:22;14.63;;;3.13;;
67712;SDS011;67640;55.784;49.138;2023-04-25T05:48:27;20.82;;;4.08;;
67712;SDS011;67640;55.784;49.138;2023-04-25T05:53:47;40.35;;;6.65;;
67712;SDS011;67640;55.784;49.138;2023-04-25T05:58:52;13.17;;;2.70;;
67712;SDS011;67640;55.784;49.138;2023-04-25T06:03:58;19.80;;;3.42;;
67712;SDS011;67640;55.784;49.138;2023-04-25T06:09:17;62.00;;;3.85;;
67712;SDS011;67640;55.784;49.138;2023-04-25T06:14:38;19.15;;;2.80;;
67712;SDS011;67640;55.784;49.138;2023-04-25T06:19:43;12.25;;;2.85;;
67712;SDS011;67640;55.784;49.138;2023-04-25T06:24:48;15.45;;;3.05;;
67712;SDS011;67640;55.784;49.138;2023-04-25T06:30:06;12.50;;;2.92;;
67712;SDS011;67640;55.784;49.138;2023-04-25T06:35:11;10.53;;;2.33;;
67712;SDS011;67640;55.784;49.138;2023-04-25T06:40:17;19.25;;;2.40;;
67712;SDS011;67640;55.784;49.138;2023-04-25T06:45:47;13.03;;;2.35;;
67712;SDS011;67640;55.784;49.138;2023-04-25T06:50:52;8.93;;;2.50;;
67712;SDS011;67640;55.784;49.138;2023-04-25T06:55:58;11.90;;;2.50;;
67712;SDS011;67640;55.784;49.138;2023-04-25T07:01:15;13.43;;;2.30;;
67712;SDS011;67640;55.784;49.138;2023-04-25T07:06:21;13.90;;;2.53;;
67712;SDS011;67640;55.784;49.138;2023-04-25T07:11:26;8.98;;;2.30;;
67712;SDS011;67640;55.784;49.138;2023-04-25T07:16:32;13.15;;;2.85;;
67712;SDS011;67640;55.784;49.138;2023-04-25T07:21:51;30.10;;;2.80;;
67712;SDS011;67640;55.784;49.138;2023-04-25T07:27:10;15.13;;;3.00;;
67712;SDS011;67640;55.784;49.138;2023-04-25T07:32:15;10.80;;;2.97;;
67712;SDS011;67640;55.784;49.138;2023-04-25T07:37:21;14.87;;;2.60;;
67712;SDS011;67640;55.784;49.138;2023-04-25T07:42:26;56.98;;;4.37;;
67712;SDS011;67640;55.784;49.138;2023-04-25T07:47:31;27.67;;;2.77;;
67712;SDS011;67640;55.784;49.138;2023-04-25T07:52:50;23.10;;;2.52;;
67712;SDS011;67640;55.784;49.138;2023-04-25T07:58:08;16.80;;;3.45;;
67712;SDS011;67640;55.784;49.138;2023-04-25T08:03:14;24.53;;;2.90;;
67712;SDS011;67640;55.784;49.138;2023-04-25T08:08:20;32.03;;;3.30;;
67712;SDS011;67640;55.784;49.138;2023-04-25T08:13:39;17.23;;;2.58;;
67712;SDS011;67640;55.784;49.138;2023-04-25T08:18:58;18.70;;;2.40;;
67712;SDS011;67640;55.784;49.138;2023-04-25T08:24:18;36.98;;;3.90;;
67712;SDS011;67640;55.784;49.138;2023-04-25T08:29:23;22.53;;;2.63;;
67712;SDS011;67640;55.784;49.138;2023-04-25T08:34:28;15.80;;;3.00;;
67712;SDS011;67640;55.784;49.138;2023-04-25T08:39:34;15.40;;;2.55;;
67712;SDS011;67640;55.784;49.138;2023-04-25T08:44:39;12.75;;;2.55;;
67712;SDS011;67640;55.784;49.138;2023-04-25T08:49:58;68.07;;;4.70;;
67712;SDS011;67640;55.784;49.138;2023-04-25T08:55:18;8.53;;;2.80;;
67712;SDS011;67640;55.784;49.138;2023-04-25T09:00:23;19.65;;;3.55;;
67712;SDS011;67640;55.784;49.138;2023-04-25T09:05:28;22.00;;;3.37;;
67712;SDS011;67640;55.784;49.138;2023-04-25T09:10:47;8.07;;;2.77;;
67712;SDS011;67640;55.784;49.138;2023-04-25T09:15:53;12.10;;;2.90;;
67712;SDS011;67640;55.784;49.138;2023-04-25T09:21:12;12.18;;;3.10;;
67712;SDS011;67640;55.784;49.138;2023-04-25T09:26:31;12.63;;;2.80;;
67712;SDS011;67640;55.784;49.138;2023-04-25T09:31:51;11.12;;;2.80;;
67712;SDS011;67640;55.784;49.138;2023-04-25T09:37:10;10.07;;;2.63;;
67712;SDS011;67640;55.784;49.138;2023-04-25T09:42:16;14.18;;;3.30;;
67712;SDS011;67640;55.784;49.138;2023-04-25T09:47:23;15.58;;;3.45;;
67712;SDS011;67640;55.784;49.138;2023-04-25T09:52:29;18.97;;;3.67;;
67712;SDS011;67640;55.784;49.138;2023-04-25T09:57:47;14.05;;;3.65;;
67712;SDS011;67640;55.784;49.138;2023-04-25T10:02:54;63.33;;;5.75;;
67712;SDS011;67640;55.784;49.138;2023-04-25T10:08:00;14.07;;;3.73;;
67712;SDS011;67640;55.784;49.138;2023-04-25T10:13:21;17.95;;;3.15;;
67712;SDS011;67640;55.784;49.138;2023-04-25T10:18:40;14.93;;;4.28;;
67712;SDS011;67640;55.784;49.138;2023-04-25T10:23:58;20.57;;;3.47;;
67712;SDS011;67640;55.784;49.138;2023-04-25T10:29:04;14.18;;;3.37;;
67712;SDS011;67640;55.784;49.138;2023-04-25T10:34:24;27.67;;;3.42;;
67712;SDS011;67640;55.784;49.138;2023-04-25T10:39:30;16.83;;;2.90;;
67712;SDS011;67640;55.784;49.138;2023-04-25T10:50:37;17.03;;;2.77;;
67712;SDS011;67640;55.784;49.138;2023-04-25T11:01:08;10.25;;;2.58;;
67712;SDS011;67640;55.784;49.138;2023-04-25T11:17:32;12.20;;;3.50;;
67712;SDS011;67640;55.784;49.138;2023-04-25T11:22:51;16.50;;;2.80;;
67712;SDS011;67640;55.784;49.138;2023-04-25T11:27:57;38.63;;;4.28;;
67712;SDS011;67640;55.784;49.138;2023-04-25T11:33:17;19.12;;;3.00;;
67712;SDS011;67640;55.784;49.138;2023-04-25T11:38:36;11.35;;;2.50;;
67712;SDS011;67640;55.784;49.138;2023-04-25T11:43:55;144.22;;;8.90;;
67712;SDS011;67640;55.784;49.138;2023-04-25T11:49:14;22.93;;;3.50;;
67712;SDS011;67640;55.784;49.138;2023-04-25T11:54:21;33.15;;;4.00;;
67712;SDS011;67640;55.784;49.138;2023-04-25T11:59:27;46.28;;;4.65;;
67712;SDS011;67640;55.784;49.138;2023-04-25T12:04:32;16.95;;;2.70;;
67712;SDS011;67640;55.784;49.138;2023-04-25T12:09:37;9.43;;;3.20;;
67712;SDS011;67640;55.784;49.138;2023-04-25T12:15:23;11.75;;;3.70;;
67712;SDS011;67640;55.784;49.138;2023-04-25T12:20:28;10.63;;;3.13;;
67712;SDS011;67640;55.784;49.138;2023-04-25T12:25:49;35.88;;;4.20;;
67712;SDS011;67640;55.784;49.138;2023-04-25T12:36:14;13.37;;;3.00;;
67712;SDS011;67640;55.784;49.138;2023-04-25T12:41:19;16.85;;;3.25;;
67712;SDS011;67640;55.784;49.138;2023-04-25T12:46:24;12.70;;;2.95;;
67712;SDS011;67640;55.784;49.138;2023-04-25T12:51:43;8.80;;;3.10;;
67712;SDS011;67640;55.784;49.138;2023-04-25T12:57:02;10.55;;;3.00;;
67712;SDS011;67640;55.784;49.138;2023-04-25T13:02:21;10.30;;;2.60;;
67712;SDS011;67640;55.784;49.138;2023-04-25T13:07:27;19.45;;;3.00;;
67712;SDS011;67640;55.784;49.138;2023-04-25T13:12:33;13.90;;;3.25;;
67712;SDS011;67640;55.784;49.138;2023-04-25T13:17:38;13.30;;;2.70;;
67712;SDS011;67640;55.784;49.138;2023-04-25T13:22:57;10.18;;;3.00;;
67712;SDS011;67640;55.784;49.138;2023-04-25T13:28:28;10.63;;;2.60;;
67712;SDS011;67640;55.784;49.138;2023-04-25T13:33:33;10.83;;;3.43;;
67712;SDS011;67640;55.784;49.138;2023-04-25T13:38:38;13.15;;;3.30;;
67712;SDS011;67640;55.784;49.138;2023-04-25T13:43:43;10.47;;;2.67;;
67712;SDS011;67640;55.784;49.138;2023-04-25T13:49:04;16.43;;;3.60;;
67712;SDS011;67640;55.784;49.138;2023-04-25T13:54:09;9.78;;;3.05;;
67712;SDS011;67640;55.784;49.138;2023-04-25T13:59:28;18.60;;;3.37;;
67712;SDS011;67640;55.784;49.138;2023-04-25T14:04:47;11.70;;;4.15;;
67712;SDS011;67640;55.784;49.138;2023-04-25T14:10:06;14.80;;;3.60;;
67712;SDS011;67640;55.784;49.138;2023-04-25T14:15:26;14.57;;;4.30;;
67712;SDS011;67640;55.784;49.138;2023-04-25T14:20:31;28.67;;;5.33;;
67712;SDS011;67640;55.784;49.138;2023-04-25T14:25:35;14.47;;;4.55;;
67712;SDS011;67640;55.784;49.138;2023-04-25T14:30:43;12.65;;;4.25;;
67712;SDS011;67640;55.784;49.138;2023-04-25T14:36:02;17.23;;;3.60;;
67712;SDS011;67640;55.784;49.138;2023-04-25T14:41:47;16.57;;;4.05;;
67712;SDS011;67640;55.784;49.138;2023-04-25T14:46:52;16.07;;;4.10;;
67712;SDS011;67640;55.784;49.138;2023-04-25T14:52:11;14.63;;;4.10;;
67712;SDS011;67640;55.784;49.138;2023-04-25T14:57:15;17.27;;;3.63;;
67712;SDS011;67640;55.784;49.138;2023-04-25T15:02:35;17.07;;;4.50;;
67712;SDS011;67640;55.784;49.138;2023-04-25T15:07:54;15.03;;;4.80;;
67712;SDS011;67640;55.784;49.138;2023-04-25T15:13:12;16.70;;;4.72;;
67712;SDS011;67640;55.784;49.138;2023-04-25T15:18:17;27.10;;;5.70;;
67712;SDS011;67640;55.784;49.138;2023-04-25T15:23:37;16.75;;;5.92;;
67712;SDS011;67640;55.784;49.138;2023-04-25T15:28:42;14.67;;;5.43;;
67712;SDS011;67640;55.784;49.138;2023-04-25T15:34:02;13.78;;;4.70;;
67712;SDS011;67640;55.784;49.138;2023-04-25T15:39:21;14.85;;;4.37;;
67712;SDS011;67640;55.784;49.138;2023-04-25T15:44:26;10.20;;;3.90;;
67712;SDS011;67640;55.784;49.138;2023-04-25T15:49:32;12.75;;;4.40;;
67712;SDS011;67640;55.784;49.138;2023-04-25T15:54:37;10.43;;;3.97;;
67712;SDS011;67640;55.784;49.138;2023-04-25T15:59:57;13.38;;;4.22;;
67712;SDS011;67640;55.784;49.138;2023-04-25T16:05:16;10.53;;;3.90;;
67712;SDS011;67640;55.784;49.138;2023-04-25T16:10:21;12.70;;;4.20;;
67712;SDS011;67640;55.784;49.138;2023-04-25T16:15:26;13.85;;;4.92;;
67712;SDS011;67640;55.784;49.138;2023-04-25T16:20:32;11.13;;;4.83;;
67712;SDS011;67640;55.784;49.138;2023-04-25T16:25:47;8.80;;;4.25;;
67712;SDS011;67640;55.784;49.138;2023-04-25T16:30:53;10.70;;;4.92;;
67712;SDS011;67640;55.784;49.138;2023-04-25T16:36:28;14.10;;;4.90;;
67712;SDS011;67640;55.784;49.138;2023-04-25T16:41:34;13.40;;;5.70;;
67712;SDS011;67640;55.784;49.138;2023-04-25T16:46:39;12.58;;;5.42;;
67712;SDS011;67640;55.784;49.138;2023-04-25T16:51:58;18.85;;;5.85;;
67712;SDS011;67640;55.784;49.138;2023-04-25T16:57:03;13.05;;;4.85;;
67712;SDS011;67640;55.784;49.138;2023-04-25T17:02:09;13.53;;;5.00;;
67712;SDS011;67640;55.784;49.138;2023-04-25T17:07:37;19.62;;;5.28;;
67712;SDS011;67640;55.784;49.138;2023-04-25T17:12:42;15.00;;;5.13;;
67712;SDS011;67640;55.784;49.138;2023-04-25T17:17:49;14.65;;;5.33;;
67712;SDS011;67640;55.784;49.138;2023-04-25T17:23:10;11.22;;;4.90;;
67712;SDS011;67640;55.784;49.138;2023-04-25T17:28:15;15.37;;;6.00;;
67712;SDS011;67640;55.784;49.138;2023-04-25T17:33:42;12.77;;;5.40;;
67712;SDS011;67640;55.784;49.138;2023-04-25T17:38:47;19.52;;;6.10;;
67712;SDS011;67640;55.784;49.138;2023-04-25T17:44:19;15.68;;;5.03;;
67712;SDS011;67640;55.784;49.138;2023-04-25T17:49:24;15.37;;;5.27;;
67712;SDS011;67640;55.784;49.138;2023-04-25T17:54:43;14.33;;;6.00;;
67712;SDS011;67640;55.784;49.138;2023-04-25T18:00:02;16.95;;;6.25;;
67712;SDS011;67640;55.784;49.138;2023-04-25T18:05:22;13.70;;;6.75;;
67712;SDS011;67640;55.784;49.138;2023-04-25T18:10:41;18.50;;;6.75;;
67712;SDS011;67640;55.784;49.138;2023-04-25T18:15:47;17.27;;;7.30;;
67712;SDS011;67640;55.784;49.138;2023-04-25T18:20:54;17.62;;;8.65;;
67712;SDS011;67640;55.784;49.138;2023-04-25T18:26:00;19.57;;;8.08;;
67712;SDS011;67640;55.784;49.138;2023-04-25T18:31:19;21.03;;;8.27;;
67712;SDS011;67640;55.784;49.138;2023-04-25T18:36:38;22.25;;;8.73;;
67712;SDS011;67640;55.784;49.138;2023-04-25T18:41:43;14.80;;;8.70;;
67712;SDS011;67640;55.784;49.138;2023-04-25T18:47:01;18.67;;;8.67;;
67712;SDS011;67640;55.784;49.138;2023-04-25T18:52:20;20.00;;;9.77;;
67712;SDS011;67640;55.784;49.138;2023-04-25T18:57:25;18.92;;;10.03;;
67712;SDS011;67640;55.784;49.138;2023-04-25T19:02:31;23.63;;;10.90;;
67712;SDS011;67640;55.784;49.138;2023-04-25T19:07:52;29.73;;;13.90;;
67712;SDS011;67640;55.784;49.138;2023-04-25T19:18:36;22.55;;;11.75;;
67712;SDS011;67640;55.784;49.138;2023-04-25T19:23:56;24.33;;;12.43;;
67712;SDS011;67640;55.784;49.138;2023-04-25T19:34:21;24.50;;;11.25;;
67712;SDS011;67640;55.784;49.138;2023-04-25T19:39:27;25.10;;;11.83;;
67712;SDS011;67640;55.784;49.138;2023-04-25T19:44:33;22.05;;;11.75;;
67712;SDS011;67640;55.784;49.138;2023-04-25T19:49:52;25.85;;;12.47;;
67712;SDS011;67640;55.784;49.138;2023-04-25T19:55:11;27.10;;;13.10;;
67712;SDS011;67640;55.784;49.138;2023-04-25T20:00:30;24.55;;;12.82;;
67712;SDS011;67640;55.784;49.138;2023-04-25T20:05:35;28.90;;;14.10;;
67712;SDS011;67640;55.784;49.138;2023-04-25T20:10:40;24.77;;;12.73;;
67712;SDS011;67640;55.784;49.138;2023-04-25T20:15:45;24.87;;;12.93;;
67712;SDS011;67640;55.784;49.138;2023-04-25T20:21:04;25.60;;;12.03;;
67712;SDS011;67640;55.784;49.138;2023-04-25T20:26:14;22.22;;;10.43;;
67712;SDS011;67640;55.784;49.138;2023-04-25T20:31:33;22.77;;;10.90;;
67712;SDS011;67640;55.784;49.138;2023-04-25T20:36:40;21.02;;;10.38;;
67712;SDS011;67640;55.784;49.138;2023-04-25T20:41:46;19.20;;;8.88;;
67712;SDS011;67640;55.784;49.138;2023-04-25T20:47:05;18.20;;;9.17;;
67712;SDS011;67640;55.784;49.138;2023-04-25T20:52:23;18.53;;;8.27;;
67712;SDS011;67640;55.784;49.138;2023-04-25T20:57:29;17.45;;;8.00;;
67712;SDS011;67640;55.784;49.138;2023-04-25T21:02:47;17.67;;;8.05;;
67712;SDS011;67640;55.784;49.138;2023-04-25T21:07:53;14.30;;;7.37;;
67712;SDS011;67640;55.784;49.138;2023-04-25T21:13:12;15.93;;;7.25;;
67712;SDS011;67640;55.784;49.138;2023-04-25T21:18:31;21.70;;;6.93;;
67712;SDS011;67640;55.784;49.138;2023-04-25T21:23:50;14.25;;;6.17;;
67712;SDS011;67640;55.784;49.138;2023-04-25T21:29:09;13.55;;;6.08;;
67712;SDS011;67640;55.784;49.138;2023-04-25T21:34:15;11.33;;;5.77;;
67712;SDS011;67640;55.784;49.138;2023-04-25T21:39:33;13.27;;;4.97;;
67712;SDS011;67640;55.784;49.138;2023-04-25T21:44:38;13.18;;;5.40;;
67712;SDS011;67640;55.784;49.138;2023-04-25T21:49:44;11.87;;;5.63;;
67712;SDS011;67640;55.784;49.138;2023-04-25T21:55:03;11.43;;;5.00;;
67712;SDS011;67640;55.784;49.138;2023-04-25T22:00:23;14.38;;;4.87;;
67712;SDS011;67640;55.784;49.138;2023-04-25T22:05:42;14.87;;;5.23;;
67712;SDS011;67640;55.784;49.138;2023-04-25T22:10:47;15.40;;;5.40;;
67712;SDS011;67640;55.784;49.138;2023-04-25T22:15:53;15.73;;;5.70;;
67712;SDS011;67640;55.784;49.138;2023-04-25T22:21:10;10.63;;;4.50;;
67712;SDS011;67640;55.784;49.138;2023-04-25T22:26:15;10.20;;;4.58;;
67712;SDS011;67640;55.784;49.138;2023-04-25T22:31:20;13.33;;;4.70;;
67712;SDS011;67640;55.784;49.138;2023-04-25T22:36:39;14.30;;;4.40;;
67712;SDS011;67640;55.784;49.138;2023-04-25T22:41:58;10.50;;;4.10;;
67712;SDS011;67640;55.784;49.138;2023-04-25T22:47:17;14.37;;;4.40;;
67712;SDS011;67640;55.784;49.138;2023-04-25T22:52:23;12.25;;;4.10;;
67712;SDS011;67640;55.784;49.138;2023-04-25T22:57:29;7.90;;;3.43;;
67712;SDS011;67640;55.784;49.138;2023-04-25T23:02:35;10.65;;;3.72;;
67712;SDS011;67640;55.784;49.138;2023-04-25T23:07:53;16.17;;;4.00;;
67712;SDS011;67640;55.784;49.138;2023-04-25T23:12:58;11.30;;;3.42;;
67712;SDS011;67640;55.784;49.138;2023-04-25T23:18:17;9.30;;;3.40;;
67712;SDS011;67640;55.784;49.138;2023-04-25T23:23:36;8.23;;;3.30;;
67712;SDS011;67640;55.784;49.138;2023-04-25T23:28:55;10.70;;;3.43;;
67712;SDS011;67640;55.784;49.138;2023-04-25T23:34:00;9.90;;;3.35;;
67712;SDS011;67640;55.784;49.138;2023-04-25T23:39:07;8.15;;;3.67;;
67712;SDS011;67640;55.784;49.138;2023-04-25T23:44:12;11.83;;;3.10;;
67712;SDS011;67640;55.784;49.138;2023-04-25T23:49:29;9.70;;;3.47;;
67712;SDS011;67640;55.784;49.138;2023-04-25T23:54:34;9.28;;;3.10;;
67712;SDS011;67640;55.784;49.138;2023-04-25T23:59:40;11.60;;;3.13;;
